RORY(METAR)
07/27 18:00
METAR RORY 270900Z AUTO 11012KT 9999 SCT011 28/26 Q0997 RMK A2946=
戻る
トップページへ戻る
IMOC Co,.Ltd.